createdAt,value
2022-12-27T00:01:37.267Z,31.70
2022-12-27T00:04:25.986Z,28.83
2022-12-27T00:06:59.248Z,27.83
2022-12-27T00:09:46.094Z,27.45
2022-12-27T00:12:26.102Z,26.42
2022-12-27T00:15:20.169Z,24.52
2022-12-27T00:18:14.159Z,25.90
2022-12-27T00:21:07.228Z,26.30
2022-12-27T00:23:44.275Z,26.92
2022-12-27T00:26:36.170Z,26.20
2022-12-27T00:29:10.258Z,24.92
2022-12-27T00:31:57.173Z,25.30
2022-12-27T00:34:30.305Z,26.08
2022-12-27T00:37:17.149Z,25.38
2022-12-27T00:39:50.247Z,26.08
2022-12-27T00:42:37.134Z,27.52
2022-12-27T00:45:18.112Z,27.67
2022-12-27T00:48:05.156Z,28.05
2022-12-27T00:50:38.258Z,27.83
2022-12-27T00:53:25.154Z,26.98
2022-12-27T00:56:05.177Z,26.13
2022-12-27T00:58:52.294Z,25.10
2022-12-27T01:01:27.473Z,25.45
2022-12-27T01:04:14.277Z,25.77
2022-12-27T01:06:48.288Z,26.60
2022-12-27T01:09:35.171Z,27.60
2022-12-27T01:12:15.152Z,30.25
2022-12-27T01:15:02.178Z,30.10
2022-12-27T01:17:43.221Z,28.90
2022-12-27T01:20:30.227Z,27.40
2022-12-27T01:23:10.174Z,27.83
2022-12-27T01:26:06.166Z,27.02
2022-12-27T01:28:40.299Z,25.85
2022-12-27T01:31:32.190Z,27.40
2022-12-27T01:34:14.165Z,27.95
2022-12-27T01:37:10.014Z,27.73
2022-12-27T01:39:57.319Z,26.63
2022-12-27T01:42:55.132Z,28.58
2022-12-27T01:45:43.192Z,27.13
2022-12-27T01:48:24.355Z,27.77
2022-12-27T01:51:13.324Z,27.35
2022-12-27T01:53:59.180Z,26.88
2022-12-27T01:56:53.239Z,27.63
2022-12-27T01:59:42.200Z,28.02
2022-12-27T02:02:22.376Z,28.45
2022-12-27T02:05:17.206Z,29.52
2022-12-27T02:08:25.190Z,28.52
2022-12-27T02:11:00.285Z,27.20
2022-12-27T02:13:50.165Z,27.05
2022-12-27T02:16:34.258Z,26.50
2022-12-27T02:19:37.247Z,26.63
2022-12-27T02:23:28.216Z,25.85
2022-12-27T02:26:18.206Z,23.77
2022-12-27T02:29:09.344Z,25.10
2022-12-27T02:32:30.183Z,25.50
2022-12-27T02:35:14.259Z,26.20
2022-12-27T02:38:26.214Z,24.00
2022-12-27T02:41:26.229Z,23.05
2022-12-27T02:44:32.216Z,24.52
2022-12-27T02:47:25.221Z,23.70
2022-12-27T02:50:34.173Z,23.50
2022-12-27T02:53:27.219Z,25.70
2022-12-27T02:57:04.211Z,28.38
2022-12-27T03:00:29.251Z,26.50
2022-12-27T03:03:42.589Z,23.73
2022-12-27T03:06:47.224Z,22.95
2022-12-27T03:10:02.230Z,24.70
2022-12-27T03:13:00.811Z,26.75
2022-12-27T03:16:02.279Z,25.33
2022-12-27T03:18:42.709Z,26.02
2022-12-27T03:22:02.195Z,27.20
2022-12-27T03:25:04.172Z,25.83
2022-12-27T03:28:15.228Z,26.52
2022-12-27T03:31:10.827Z,25.25
2022-12-27T03:34:11.190Z,24.67
2022-12-27T03:37:11.264Z,24.70
2022-12-27T03:40:17.181Z,24.50
2022-12-27T03:43:19.233Z,24.88
2022-12-27T03:46:43.223Z,26.15
2022-12-27T03:49:35.270Z,28.25
2022-12-27T03:52:22.336Z,28.73
2022-12-27T03:55:10.231Z,26.35
2022-12-27T03:57:44.273Z,26.65
2022-12-27T04:00:31.251Z,28.75
2022-12-27T04:03:04.294Z,27.83
2022-12-27T04:06:06.169Z,28.17
2022-12-27T04:09:18.228Z,26.80
2022-12-27T04:12:30.231Z,28.10
2022-12-27T04:15:36.311Z,26.48
2022-12-27T04:18:27.797Z,24.85
2022-12-27T04:21:32.207Z,25.30
2022-12-27T04:24:30.198Z,27.80
2022-12-27T04:27:35.228Z,26.98
2022-12-27T04:30:34.191Z,26.63
2022-12-27T04:33:46.215Z,25.83
2022-12-27T04:36:33.243Z,25.92
2022-12-27T04:39:13.234Z,25.85
2022-12-27T04:42:18.202Z,26.02
2022-12-27T04:45:15.215Z,25.65
2022-12-27T04:48:20.201Z,24.80
2022-12-27T04:51:18.203Z,25.00
2022-12-27T04:54:30.206Z,26.00
2022-12-27T04:57:17.231Z,23.67
2022-12-27T05:00:26.224Z,24.50
2022-12-27T05:03:24.281Z,24.10
2022-12-27T05:06:18.229Z,23.58
2022-12-27T05:09:33.228Z,24.95
2022-12-27T05:12:45.226Z,24.23
2022-12-27T05:15:39.244Z,23.92
2022-12-27T05:18:26.244Z,25.20
2022-12-27T05:21:06.236Z,26.42
2022-12-27T05:24:18.195Z,26.30
2022-12-27T05:27:12.241Z,26.17
2022-12-27T05:30:06.210Z,26.77
2022-12-27T05:32:53.233Z,27.23
2022-12-27T05:35:26.309Z,25.27
2022-12-27T05:38:13.251Z,26.40
2022-12-27T05:40:46.318Z,27.35
2022-12-27T05:43:34.216Z,27.83
2022-12-27T05:46:18.341Z,27.80
2022-12-27T05:49:05.236Z,27.30
2022-12-27T05:51:45.262Z,26.60
2022-12-27T05:54:32.229Z,28.88
2022-12-27T05:57:12.193Z,26.30
2022-12-27T06:00:06.236Z,25.90
2022-12-27T06:02:53.354Z,26.75
2022-12-27T06:05:26.329Z,25.45
2022-12-27T06:08:13.238Z,25.60
2022-12-27T06:10:53.231Z,27.38
2022-12-27T06:13:40.268Z,23.38
2022-12-27T06:16:15.346Z,23.55
2022-12-27T06:19:02.237Z,23.75
2022-12-27T06:21:35.335Z,23.20
2022-12-27T06:24:23.241Z,23.58
2022-12-27T06:26:56.390Z,22.15
2022-12-27T06:29:43.236Z,22.65
2022-12-27T06:32:24.242Z,22.60
2022-12-27T06:35:18.238Z,21.33
2022-12-27T06:38:05.265Z,21.45
2022-12-27T06:40:38.338Z,22.80
2022-12-27T06:43:25.248Z,25.45
2022-12-27T06:46:17.625Z,24.17
2022-12-27T06:49:12.218Z,29.17
2022-12-27T06:51:59.867Z,32.28
2022-12-27T06:54:40.243Z,31.30
2022-12-27T06:57:27.215Z,35.95
2022-12-27T07:00:07.254Z,37.00
2022-12-27T07:03:01.331Z,31.88
2022-12-27T07:05:55.241Z,25.20
2022-12-27T07:08:43.252Z,22.85
2022-12-27T07:11:25.272Z,22.85
2022-12-27T07:14:23.240Z,21.35
2022-12-27T07:17:10.268Z,20.38
2022-12-27T07:19:43.342Z,21.98
2022-12-27T07:22:30.265Z,20.85
2022-12-27T07:25:03.372Z,20.67
2022-12-27T07:27:50.253Z,20.42
2022-12-27T07:30:23.465Z,19.52
2022-12-27T07:33:10.243Z,19.58
2022-12-27T07:35:45.264Z,19.85
2022-12-27T07:38:32.256Z,18.65
2022-12-27T07:41:07.376Z,18.10
2022-12-27T07:43:54.284Z,17.50
2022-12-27T07:46:30.389Z,18.52
2022-12-27T07:49:18.308Z,18.10
2022-12-27T07:51:51.375Z,16.90
2022-12-27T07:54:38.254Z,17.55
2022-12-27T07:57:11.384Z,16.80
2022-12-27T07:59:58.269Z,16.23
2022-12-27T08:02:31.429Z,16.35
2022-12-27T08:05:20.396Z,14.95
2022-12-27T08:08:08.291Z,16.38
2022-12-27T08:10:58.256Z,15.63
2022-12-27T08:13:40.252Z,14.07
2022-12-27T08:16:36.310Z,11.45
2022-12-27T08:19:23.295Z,15.10
2022-12-27T08:21:56.406Z,14.25
2022-12-27T08:24:45.296Z,14.32
2022-12-27T08:27:19.388Z,15.25
2022-12-27T08:30:06.282Z,12.02
2022-12-27T08:32:39.368Z,12.13
2022-12-27T08:35:51.534Z,12.27
2022-12-27T08:38:19.380Z,13.95
2022-12-27T08:41:06.290Z,13.52
2022-12-27T08:43:39.374Z,11.55
2022-12-27T08:46:26.317Z,12.77
2022-12-27T08:48:59.391Z,12.82
2022-12-27T08:51:46.291Z,11.13
2022-12-27T08:54:19.430Z,13.38
2022-12-27T08:57:06.288Z,12.52
2022-12-27T08:59:46.284Z,11.80
2022-12-27T09:02:40.392Z,10.45
2022-12-27T09:05:28.234Z,11.85
2022-12-27T09:08:08.309Z,13.60
2022-12-27T09:11:02.276Z,13.13
2022-12-27T09:13:56.310Z,12.05
2022-12-27T09:16:50.280Z,13.13
2022-12-27T09:19:38.313Z,12.52
2022-12-27T09:22:18.306Z,12.40
2022-12-27T09:25:12.308Z,13.32
2022-12-27T09:27:59.305Z,13.50
2022-12-27T09:30:32.428Z,15.32
2022-12-27T09:33:19.307Z,13.02
2022-12-27T09:35:52.451Z,11.00
2022-12-27T09:38:39.310Z,13.43
2022-12-27T09:41:59.053Z,14.45
2022-12-27T09:44:42.302Z,14.25
2022-12-27T09:47:22.412Z,13.63
2022-12-27T09:50:13.322Z,12.50
2022-12-27T09:52:46.441Z,14.45
2022-12-27T09:55:50.320Z,17.05
2022-12-27T09:58:38.457Z,20.73
2022-12-27T10:01:43.432Z,18.83
2022-12-27T10:04:22.634Z,14.70
2022-12-27T10:07:21.316Z,13.93
2022-12-27T10:10:33.420Z,13.45
2022-12-27T10:13:20.327Z,12.13
2022-12-27T10:16:15.444Z,14.52
2022-12-27T10:19:30.372Z,12.98
2022-12-27T10:22:14.419Z,13.18
2022-12-27T10:25:05.346Z,11.73
2022-12-27T10:27:38.425Z,13.35
2022-12-27T10:30:31.305Z,14.20
2022-12-27T10:33:11.316Z,13.13
2022-12-27T10:36:05.331Z,13.82
2022-12-27T10:38:52.345Z,13.93
2022-12-27T10:41:40.485Z,14.27
2022-12-27T10:44:30.337Z,13.35
2022-12-27T10:47:03.457Z,13.20
2022-12-27T10:50:18.317Z,13.32
2022-12-27T10:52:57.171Z,12.25
2022-12-27T10:55:45.336Z,12.32
2022-12-27T10:58:56.485Z,11.68
2022-12-27T11:01:52.387Z,11.77
2022-12-27T11:04:39.349Z,13.25
2022-12-27T11:07:12.424Z,12.95
2022-12-27T11:10:13.349Z,12.43
2022-12-27T11:13:08.350Z,14.25
2022-12-27T11:16:09.399Z,14.23
2022-12-27T11:18:59.355Z,20.92
2022-12-27T11:21:35.425Z,17.25
2022-12-27T11:24:24.352Z,12.80
2022-12-27T11:26:59.470Z,10.73
2022-12-27T11:29:51.352Z,11.50
2022-12-27T11:32:33.388Z,12.63
2022-12-27T11:35:36.343Z,12.48
2022-12-27T11:38:31.361Z,12.27
2022-12-27T11:41:21.953Z,13.80
2022-12-27T11:44:49.351Z,14.77
2022-12-27T11:47:50.441Z,13.23
2022-12-27T11:50:53.363Z,13.90
2022-12-27T11:53:39.376Z,12.90
2022-12-27T11:56:57.389Z,14.48
2022-12-27T12:00:03.352Z,13.35
2022-12-27T12:03:01.459Z,14.73
2022-12-27T12:05:57.366Z,16.38
2022-12-27T12:09:11.373Z,14.73
2022-12-27T12:12:16.356Z,14.38
2022-12-27T12:15:15.366Z,16.02
2022-12-27T12:18:02.369Z,11.65
2022-12-27T12:20:50.952Z,14.07
2022-12-27T12:24:30.409Z,14.43
2022-12-27T12:27:24.365Z,13.43
2022-12-27T12:30:11.433Z,13.15
2022-12-27T12:32:56.467Z,13.30
2022-12-27T12:36:20.381Z,14.85
2022-12-27T12:39:08.463Z,14.68
2022-12-27T12:42:19.383Z,11.10
2022-12-27T12:45:31.520Z,12.20
2022-12-27T12:48:54.382Z,12.60
2022-12-27T12:51:57.494Z,13.20
2022-12-27T12:54:59.389Z,12.10
2022-12-27T12:57:58.406Z,11.98
2022-12-27T13:01:16.499Z,13.02
2022-12-27T13:04:20.359Z,11.70
2022-12-27T13:07:39.556Z,12.52
2022-12-27T13:10:57.372Z,10.68
2022-12-27T13:14:05.391Z,11.75
2022-12-27T13:17:24.403Z,12.02
2022-12-27T13:20:20.386Z,12.48
2022-12-27T13:23:01.593Z,12.40
2022-12-27T13:26:00.397Z,13.18
2022-12-27T13:28:52.478Z,12.82
2022-12-27T13:31:58.391Z,11.15
2022-12-27T13:34:57.389Z,11.45
2022-12-27T13:37:59.382Z,11.35
2022-12-27T13:41:09.538Z,11.38
2022-12-27T13:44:23.383Z,14.25
2022-12-27T13:47:25.426Z,13.50
2022-12-27T13:50:18.391Z,11.52
2022-12-27T13:53:30.567Z,12.70
2022-12-27T13:56:55.838Z,13.13
2022-12-27T13:59:53.399Z,13.15
2022-12-27T14:02:55.490Z,13.77
2022-12-27T14:06:04.420Z,13.10
2022-12-27T14:09:29.477Z,14.85
2022-12-27T14:12:34.447Z,17.00
2022-12-27T14:15:51.432Z,14.00
2022-12-27T14:19:15.476Z,13.35
2022-12-27T14:21:54.531Z,16.83
2022-12-27T14:24:59.399Z,14.93
2022-12-27T14:28:07.501Z,16.00
2022-12-27T14:31:12.529Z,14.60
2022-12-27T14:34:11.412Z,16.67
2022-12-27T14:37:26.395Z,17.13
2022-12-27T14:40:09.407Z,15.52
2022-12-27T14:43:18.457Z,16.88
2022-12-27T14:46:44.555Z,18.17
2022-12-27T14:49:46.408Z,15.88
2022-12-27T14:53:10.471Z,16.27
2022-12-27T14:55:58.411Z,21.25
2022-12-27T14:59:10.417Z,21.85
2022-12-27T15:02:09.584Z,19.33
2022-12-27T15:05:13.479Z,21.13
2022-12-27T15:08:04.596Z,20.65
2022-12-27T15:10:57.443Z,24.13
2022-12-27T15:14:07.675Z,24.85
2022-12-27T15:17:39.459Z,23.45
2022-12-27T15:20:15.558Z,23.88
2022-12-27T15:23:51.437Z,30.45
2022-12-27T15:26:50.435Z,29.02
2022-12-27T15:29:40.413Z,24.98
2022-12-27T15:32:40.433Z,25.05
2022-12-27T15:35:36.456Z,27.55
2022-12-27T15:38:53.601Z,24.70
2022-12-27T15:41:45.602Z,26.60
2022-12-27T15:44:46.431Z,28.83
2022-12-27T15:47:32.439Z,29.33
2022-12-27T15:50:26.442Z,30.20
2022-12-27T15:53:34.442Z,27.58
2022-12-27T15:56:17.427Z,26.75
2022-12-27T15:59:48.532Z,22.95
2022-12-27T16:02:42.610Z,23.90
2022-12-27T16:05:38.552Z,22.23
2022-12-27T16:08:33.435Z,22.70
2022-12-27T16:11:15.453Z,23.48
2022-12-27T16:14:36.441Z,21.05
2022-12-27T16:18:00.471Z,22.00
2022-12-27T16:20:54.460Z,22.05
2022-12-27T16:23:55.465Z,25.80
2022-12-27T16:26:37.562Z,23.70
2022-12-27T16:29:24.461Z,23.63
2022-12-27T16:31:58.613Z,21.20
2022-12-27T16:34:46.514Z,21.92
2022-12-27T16:37:51.788Z,19.15
2022-12-27T16:41:02.449Z,20.33
2022-12-27T16:43:58.471Z,18.25
2022-12-27T16:47:36.467Z,19.30
2022-12-27T16:50:26.609Z,19.05
2022-12-27T16:53:18.662Z,16.55
2022-12-27T16:56:25.514Z,17.30
2022-12-27T16:58:58.622Z,17.23
2022-12-27T17:01:51.566Z,16.65
2022-12-27T17:04:56.594Z,14.57
2022-12-27T17:08:06.639Z,11.52
2022-12-27T17:10:56.573Z,12.23
2022-12-27T17:13:34.810Z,13.98
2022-12-27T17:16:29.716Z,11.13
2022-12-27T17:19:15.467Z,11.73
2022-12-27T17:22:07.772Z,13.95
2022-12-27T17:24:48.720Z,13.77
2022-12-27T17:27:47.701Z,14.52
2022-12-27T17:30:46.764Z,14.05
2022-12-27T17:34:05.717Z,15.55
2022-12-27T17:36:58.762Z,16.40
2022-12-27T17:40:05.769Z,18.20
2022-12-27T17:43:20.789Z,19.58
2022-12-27T17:46:16.842Z,16.90
2022-12-27T17:49:11.670Z,17.02
2022-12-27T17:52:16.685Z,20.00
2022-12-27T17:55:09.645Z,18.25
2022-12-27T17:58:01.673Z,21.60
2022-12-27T18:01:08.632Z,23.40
2022-12-27T18:04:02.730Z,21.23
2022-12-27T18:06:56.567Z,18.75
2022-12-27T18:09:57.520Z,18.92
2022-12-27T18:12:34.632Z,18.27
2022-12-27T18:15:25.536Z,19.80
2022-12-27T18:18:01.606Z,18.70
2022-12-27T18:20:48.515Z,18.45
2022-12-27T18:23:31.508Z,19.20
2022-12-27T18:26:20.502Z,18.63
2022-12-27T18:28:54.592Z,16.58
2022-12-27T18:31:53.527Z,17.73
2022-12-27T18:34:33.600Z,20.67
2022-12-27T18:37:25.528Z,19.70
2022-12-27T18:40:04.929Z,21.50
2022-12-27T18:42:55.673Z,20.45
2022-12-27T18:45:34.296Z,19.75
2022-12-27T18:48:25.115Z,18.30
2022-12-27T18:51:07.937Z,16.67
2022-12-27T18:54:01.977Z,17.58
2022-12-27T18:56:49.905Z,20.90
2022-12-27T18:59:38.525Z,20.55
2022-12-27T19:02:51.556Z,21.48
2022-12-27T19:05:34.565Z,21.52
2022-12-27T19:08:34.651Z,16.63
2022-12-27T19:11:39.498Z,18.52
2022-12-27T19:14:28.530Z,18.85
2022-12-27T19:17:10.659Z,16.98
2022-12-27T19:20:04.533Z,12.85
2022-12-27T19:22:47.637Z,17.13
2022-12-27T19:25:52.521Z,16.13
2022-12-27T19:28:40.685Z,18.90
2022-12-27T19:31:22.765Z,15.68
2022-12-27T19:34:14.532Z,12.82
2022-12-27T19:36:50.656Z,15.82
2022-12-27T19:39:42.593Z,17.52
2022-12-27T19:42:23.626Z,15.82
2022-12-27T19:45:10.546Z,19.98
2022-12-27T19:47:43.651Z,20.00
2022-12-27T19:50:30.535Z,18.38
2022-12-27T19:53:11.560Z,17.20
2022-12-27T19:55:58.517Z,17.52
2022-12-27T19:58:33.638Z,18.45
2022-12-27T20:01:20.738Z,21.73
2022-12-27T20:04:00.674Z,15.70
2022-12-27T20:06:54.719Z,16.63
2022-12-27T20:09:49.403Z,16.48
2022-12-27T20:12:43.640Z,19.58
2022-12-27T20:15:31.598Z,19.20
2022-12-27T20:18:11.620Z,19.75
2022-12-27T20:20:59.634Z,21.67
2022-12-27T20:23:39.684Z,21.95
2022-12-27T20:26:36.838Z,22.15
2022-12-27T20:29:23.766Z,20.60
2022-12-27T20:32:03.550Z,17.08
2022-12-27T20:34:57.684Z,15.70
2022-12-27T20:37:44.820Z,16.55
2022-12-27T20:40:25.707Z,16.70
2022-12-27T20:43:12.543Z,17.95
2022-12-27T20:45:45.792Z,17.55
2022-12-27T20:48:32.531Z,15.43
2022-12-27T20:51:11.795Z,17.20
2022-12-27T20:54:09.537Z,15.65
2022-12-27T20:56:49.584Z,16.08
2022-12-27T20:59:43.586Z,16.25
2022-12-27T21:02:30.807Z,16.42
2022-12-27T21:05:04.793Z,15.13
2022-12-27T21:07:58.548Z,14.65
2022-12-27T21:10:52.802Z,16.95
2022-12-27T21:13:41.784Z,14.85
2022-12-27T21:16:34.868Z,16.17
2022-12-27T21:19:21.542Z,17.48
2022-12-27T21:22:01.577Z,21.83
2022-12-27T21:24:55.559Z,16.73
2022-12-27T21:27:42.533Z,15.40
2022-12-27T21:30:23.560Z,17.15
2022-12-27T21:33:17.601Z,17.25
2022-12-27T21:36:06.670Z,20.52
2022-12-27T21:38:47.560Z,23.45
2022-12-27T21:41:39.571Z,22.13
2022-12-27T21:44:20.578Z,21.15
2022-12-27T21:47:14.546Z,23.52
2022-12-27T21:50:01.574Z,22.17
2022-12-27T21:52:34.699Z,19.10
2022-12-27T21:55:21.574Z,21.90
2022-12-27T21:57:54.679Z,24.48
2022-12-27T22:00:41.590Z,24.33
2022-12-27T22:03:21.707Z,24.50
2022-12-27T22:06:22.559Z,32.75
2022-12-27T22:09:05.580Z,29.15
2022-12-27T22:11:52.628Z,28.48
2022-12-27T22:14:36.816Z,25.08
2022-12-27T22:17:23.596Z,24.65
2022-12-27T22:19:56.647Z,22.08
2022-12-27T22:22:43.637Z,21.08
2022-12-27T22:25:26.590Z,32.72
2022-12-27T22:28:13.580Z,27.00
2022-12-27T22:30:54.734Z,24.80
2022-12-27T22:33:42.601Z,25.10
2022-12-27T22:36:19.739Z,26.42
2022-12-27T22:39:07.587Z,26.45
2022-12-27T22:41:51.753Z,26.02
2022-12-27T22:44:45.582Z,23.83
2022-12-27T22:47:32.663Z,23.13
2022-12-27T22:50:05.788Z,23.92
2022-12-27T22:52:53.561Z,28.33
2022-12-27T22:55:33.603Z,25.67
2022-12-27T22:58:20.595Z,23.25
2022-12-27T23:00:53.708Z,24.75
2022-12-27T23:03:40.681Z,24.48
2022-12-27T23:06:14.732Z,24.85
2022-12-27T23:09:08.602Z,22.65
2022-12-27T23:11:55.582Z,22.67
2022-12-27T23:14:35.598Z,24.65
2022-12-27T23:17:22.609Z,22.95
2022-12-27T23:20:02.593Z,21.58
2022-12-27T23:22:56.583Z,21.55
2022-12-27T23:25:43.627Z,23.08
2022-12-27T23:28:16.710Z,21.45
2022-12-27T23:31:03.620Z,19.92
2022-12-27T23:33:36.785Z,18.70
2022-12-27T23:36:23.616Z,18.65
2022-12-27T23:39:04.614Z,17.73
2022-12-27T23:41:51.610Z,19.20
2022-12-27T23:44:33.067Z,19.20
2022-12-27T23:47:14.602Z,18.40
2022-12-27T23:50:01.598Z,20.08
2022-12-27T23:52:48.607Z,20.23
2022-12-27T23:55:28.624Z,20.05
2022-12-27T23:58:23.626Z,19.67
